• Join FlightAware (Why Join?)
  • Login
  • US Flag 
03:15PM EDT


 

Airport Tracker/Info


-or-


 

Live Flight TrackerFlight Track Log ✈ AFR6042 ✈ 01-May-2013 ✈ LFPO / ORY - LFML / MRS

Flight Track Log - Related Links

Times and Time Zones

All times are in EDT time to prevent confusion due to time zone crossing. See the AFR6042 flight status page for this flight to view local times or setup timezone preferences in your user account.

Time Position Orientation Groundspeed Altitude Reporting Facility
EDT Latitude Longitude Course Direction KTS MPH feet Rate Location/Type
01:22PM 47.3628 3.1525 158° South  Level Estimated
01:23PM 47.2718 3.2039 159° South  Level Estimated
01:24PM 47.1808 3.2551 159° South  Level Estimated
01:25PM 47.0897 3.3062 159° South  Level Estimated
01:26PM 46.9986 3.3571 159° South  Level Estimated
01:27PM 46.9075 3.4078 159° South  Level Estimated
01:28PM 46.8163 3.4583 159° South  Level Estimated
01:29PM 46.7252 3.5087 159° South  Level Estimated
01:30PM 46.6340 3.5589 159° South  Level Estimated
01:31PM 46.5428 3.6089 159° South  Level Estimated
01:32PM 46.4516 3.6587 159° South  Level Estimated
01:33PM 46.3604 3.7084 159° South  Level Estimated
01:34PM 46.2691 3.7579 159° South  Level Estimated
01:35PM 46.1778 3.8073 159° South  Level Estimated
01:36PM 46.0865 3.8565 160° South  Level Estimated
01:37PM 45.9952 3.9055 160° South  Level Estimated
01:38PM 45.9038 3.9544 160° South  Level Estimated
01:39PM 45.8124 4.0031 160° South  Level Estimated
01:40PM 45.7210 4.0517 160° South  Level Estimated
01:41PM 45.6296 4.1000 160° South  Level Estimated
01:42PM 45.5382 4.1483 160° South  Level Estimated
01:43PM 45.4602 4.1893 160° South  Level Estimated
01:44PM 45.3822 4.2302 160° South  Level Estimated
01:45PM 45.3041 4.2710 160° South  Level Estimated
01:46PM 45.2261 4.3117 160° South  Level Estimated
01:47PM 45.1480 4.3522 160° South  Level Estimated
01:48PM 45.0700 4.3927 160° South  Level Estimated
01:49PM 44.9919 4.4331 160° South  Level Estimated
01:50PM 44.9138 4.4733 160° South  Level Estimated
01:51PM 44.8357 4.5134 160° South  Level Estimated
01:52PM 44.7575 4.5534 160° South  Level Estimated
01:53PM 44.6794 4.5933 160° South  Level Estimated
01:54PM 44.6012 4.6332 160° South  Level Estimated
01:55PM 44.5231 4.6729 160° South  Level Estimated
01:56PM 44.4449 4.7124 160° South  Level Estimated
01:57PM 44.3667 4.7519 160° South  Level Estimated
01:58PM 44.2885 4.7913 160° South  Level Estimated
01:59PM 44.2102 4.8306 160° South  Level Estimated
02:00PM 44.1320 4.8697 160° South  Level Estimated
02:01PM 44.0537 4.9088 160° South  Level Estimated
02:02PM 43.9755 4.9478 160° South  Level Estimated
02:03PM 43.8972 4.9866 160° South  Level Estimated
02:04PM 43.8189 5.0254 160° South  Level Estimated
02:05PM 43.7406 5.0641 160° South  Level Estimated
02:06PM 43.6623 5.1026 160° South  Level Estimated
02:07PM 43.5839 5.1411 160° South  Level Estimated
02:08PM 43.5056 5.1794 160° South  Level Estimated
02:09PM 43.4356 5.2136 160° South  Level Estimated
02:10PM 43.4356 5.2136 172° South  Level Estimated
02:11PM 43.4356 5.2136 172° South  Level Estimated
02:12PM 43.4356 5.2136 172° South  Level Estimated
02:13PM 43.4356 5.2136 172° South  Level Estimated
02:14PM 43.4356 5.2136 172° South  Level Estimated
02:15PM 43.4356 5.2136 172° South  Level Estimated
02:16PM 43.4356 5.2136 172° South  Level Estimated
02:17PM 43.4356 5.2136 172° South  Level Estimated
02:18PM 43.4356 5.2136 172° South  Level Estimated
02:19PM 43.4356 5.2136 172° South  Level Estimated
02:20PM 43.4356 5.2136 172° South  Level Estimated
02:21PM 43.4356 5.2136 172° South  Level Estimated
02:22PM 43.4356 5.2136 172° South  Level Estimated
02:23PM 43.4356 5.2136 172° South  Level Estimated
02:24PM 43.4356 5.2136 172° South  Level Estimated
02:25PM 43.4356 5.2136 172° South  Level Estimated
02:26PM 43.4356 5.2136 172° South  Level Estimated
02:27PM 43.4356 5.2136 172° South  Level Estimated
02:28PM 43.4356 5.2136 172° South  Level Estimated